Terminal Aerodrome Forecast
Issued by NWS Louisville, KY

Home | Current Version | Previous Version | Text Only | Print | Product List | Glossary On
Versions: 1 2 3 4 5 6 7 8 9 10 11 12 13 14 15 16 17 18
156
FTUS43 KLMK 272326
TAFSDF
TAF
KSDF 272326Z 2800/0106 15005KT P6SM SCT120
     FM280900 16005KT P6SM VCSH OVC035
     FM281100 18007KT 6SM -SHRA BR VCTS BKN012 OVC035CB
     FM281800 20011G20KT P6SM VCSH OVC012
     FM282200 20012KT P6SM OVC015=

USA.gov is the U.S. government's official web portal to all federal, state and local government web resources and services.